sensor_id;sensor_type;location;lat;lon;timestamp;pressure;altitude;pressure_sealevel;temperature;humidity
74613;BME280;63119;51.788;8.824;2022-10-23T00:03:53;100080.75;;;11.45;87.06
74613;BME280;63119;51.788;8.824;2022-10-23T00:06:19;100076.41;;;11.57;86.82
74613;BME280;63119;51.788;8.824;2022-10-23T00:08:47;100077.56;;;11.40;87.14
74613;BME280;63119;51.788;8.824;2022-10-23T00:11:15;100069.53;;;11.42;86.89
74613;BME280;63119;51.788;8.824;2022-10-23T00:13:41;100075.69;;;11.30;87.28
74613;BME280;63119;51.788;8.824;2022-10-23T00:16:07;100076.63;;;11.16;88.25
74613;BME280;63119;51.788;8.824;2022-10-23T00:18:33;100072.16;;;11.17;88.13
74613;BME280;63119;51.788;8.824;2022-10-23T00:20:59;100073.75;;;11.19;87.62
74613;BME280;63119;51.788;8.824;2022-10-23T00:23:24;100073.88;;;11.18;87.51
74613;BME280;63119;51.788;8.824;2022-10-23T00:25:49;100070.81;;;11.24;87.14
74613;BME280;63119;51.788;8.824;2022-10-23T00:28:15;100069.00;;;11.24;86.92
74613;BME280;63119;51.788;8.824;2022-10-23T00:30:41;100068.88;;;11.26;86.65
74613;BME280;63119;51.788;8.824;2022-10-23T00:33:06;100072.91;;;11.19;87.64
74613;BME280;63119;51.788;8.824;2022-10-23T00:35:32;100072.19;;;11.29;87.23
74613;BME280;63119;51.788;8.824;2022-10-23T00:37:57;100076.09;;;11.24;87.62
74613;BME280;63119;51.788;8.824;2022-10-23T00:40:22;100078.97;;;11.21;87.20
74613;BME280;63119;51.788;8.824;2022-10-23T00:42:48;100075.75;;;11.16;86.51
74613;BME280;63119;51.788;8.824;2022-10-23T00:45:25;100075.75;;;11.16;87.09
74613;BME280;63119;51.788;8.824;2022-10-23T00:47:52;100070.25;;;11.19;87.44
74613;BME280;63119;51.788;8.824;2022-10-23T00:50:20;100067.72;;;11.30;87.11
74613;BME280;63119;51.788;8.824;2022-10-23T00:52:49;100066.88;;;11.29;87.33
74613;BME280;63119;51.788;8.824;2022-10-23T00:55:16;100060.94;;;11.38;86.67
74613;BME280;63119;51.788;8.824;2022-10-23T00:57:43;100052.16;;;11.25;87.08
74613;BME280;63119;51.788;8.824;2022-10-23T01:00:16;100056.06;;;11.20;87.66
74613;BME280;63119;51.788;8.824;2022-10-23T01:02:42;100063.06;;;11.21;87.93
74613;BME280;63119;51.788;8.824;2022-10-23T01:05:08;100061.69;;;11.28;87.56
74613;BME280;63119;51.788;8.824;2022-10-23T01:07:44;100060.22;;;11.11;87.01
74613;BME280;63119;51.788;8.824;2022-10-23T01:10:24;100057.13;;;11.05;87.39
74613;BME280;63119;51.788;8.824;2022-10-23T01:13:01;100056.81;;;10.96;87.53
74613;BME280;63119;51.788;8.824;2022-10-23T01:15:43;100052.59;;;10.94;87.59
74613;BME280;63119;51.788;8.824;2022-10-23T01:18:21;100050.88;;;11.06;87.64
74613;BME280;63119;51.788;8.824;2022-10-23T01:20:54;100040.59;;;11.01;87.95
74613;BME280;63119;51.788;8.824;2022-10-23T01:23:41;100044.84;;;10.91;87.41
74613;BME280;63119;51.788;8.824;2022-10-23T01:26:29;100052.56;;;10.81;87.05
74613;BME280;63119;51.788;8.824;2022-10-23T01:31:45;100053.94;;;10.87;87.12
74613;BME280;63119;51.788;8.824;2022-10-23T01:34:17;100056.38;;;10.90;86.38
74613;BME280;63119;51.788;8.824;2022-10-23T01:36:47;100047.38;;;10.92;86.27
74613;BME280;63119;51.788;8.824;2022-10-23T01:39:21;100048.53;;;10.88;86.21
74613;BME280;63119;51.788;8.824;2022-10-23T01:41:58;100052.16;;;10.87;86.70
74613;BME280;63119;51.788;8.824;2022-10-23T01:44:43;100048.53;;;10.88;86.01
74613;BME280;63119;51.788;8.824;2022-10-23T01:47:12;100039.88;;;10.99;86.57
74613;BME280;63119;51.788;8.824;2022-10-23T01:49:39;100032.13;;;10.96;87.03
74613;BME280;63119;51.788;8.824;2022-10-23T01:52:08;100035.94;;;10.92;86.08
74613;BME280;63119;51.788;8.824;2022-10-23T01:54:38;100037.41;;;10.83;86.22
74613;BME280;63119;51.788;8.824;2022-10-23T01:57:07;100030.84;;;10.76;87.08
74613;BME280;63119;51.788;8.824;2022-10-23T01:59:38;100035.09;;;10.79;87.09
74613;BME280;63119;51.788;8.824;2022-10-23T02:02:06;100030.00;;;10.76;85.98
74613;BME280;63119;51.788;8.824;2022-10-23T02:04:41;100020.66;;;10.70;86.95
74613;BME280;63119;51.788;8.824;2022-10-23T02:07:10;100025.22;;;10.68;87.65
74613;BME280;63119;51.788;8.824;2022-10-23T02:09:35;100030.84;;;10.64;86.97
74613;BME280;63119;51.788;8.824;2022-10-23T02:12:07;100021.28;;;10.61;86.94
74613;BME280;63119;51.788;8.824;2022-10-23T02:14:39;100027.19;;;10.52;87.15
74613;BME280;63119;51.788;8.824;2022-10-23T02:17:13;100027.06;;;10.41;87.08
74613;BME280;63119;51.788;8.824;2022-10-23T02:19:42;100028.75;;;10.29;88.48
74613;BME280;63119;51.788;8.824;2022-10-23T02:22:17;100021.03;;;10.39;86.83
74613;BME280;63119;51.788;8.824;2022-10-23T02:24:52;100015.44;;;10.43;87.80
74613;BME280;63119;51.788;8.824;2022-10-23T02:27:27;100010.09;;;10.58;87.39
74613;BME280;63119;51.788;8.824;2022-10-23T02:30:01;100004.31;;;10.38;87.34
74613;BME280;63119;51.788;8.824;2022-10-23T02:32:27;100006.22;;;10.36;87.20
74613;BME280;63119;51.788;8.824;2022-10-23T02:34:53;99999.53;;;10.31;86.68
74613;BME280;63119;51.788;8.824;2022-10-23T02:37:19;99996.44;;;10.24;87.39
74613;BME280;63119;51.788;8.824;2022-10-23T02:39:44;99993.19;;;10.21;87.94
74613;BME280;63119;51.788;8.824;2022-10-23T02:42:26;99995.63;;;10.24;86.91
74613;BME280;63119;51.788;8.824;2022-10-23T02:45:35;99991.34;;;10.21;87.14
74613;BME280;63119;51.788;8.824;2022-10-23T02:48:17;99989.13;;;10.15;86.80
74613;BME280;63119;51.788;8.824;2022-10-23T02:53:35;99986.47;;;10.15;86.47
74613;BME280;63119;51.788;8.824;2022-10-23T02:56:12;99972.44;;;10.15;87.77
74613;BME280;63119;51.788;8.824;2022-10-23T03:01:35;99967.03;;;10.16;87.05
74613;BME280;63119;51.788;8.824;2022-10-23T03:04:04;99970.59;;;10.15;86.58
74613;BME280;63119;51.788;8.824;2022-10-23T03:06:31;99970.59;;;10.15;85.65
74613;BME280;63119;51.788;8.824;2022-10-23T03:08:59;99970.56;;;10.03;86.05
74613;BME280;63119;51.788;8.824;2022-10-23T03:11:24;99969.38;;;10.07;85.51
74613;BME280;63119;51.788;8.824;2022-10-23T03:13:50;99972.16;;;10.05;84.92
74613;BME280;63119;51.788;8.824;2022-10-23T03:16:16;99974.47;;;10.10;85.33
74613;BME280;63119;51.788;8.824;2022-10-23T03:18:41;99970.72;;;10.14;85.42
74613;BME280;63119;51.788;8.824;2022-10-23T03:21:07;99973.53;;;10.11;85.64
74613;BME280;63119;51.788;8.824;2022-10-23T03:23:32;99968.53;;;10.06;85.04
74613;BME280;63119;51.788;8.824;2022-10-23T03:25:58;99971.09;;;10.08;85.71
74613;BME280;63119;51.788;8.824;2022-10-23T03:28:23;99960.41;;;10.09;85.69
74613;BME280;63119;51.788;8.824;2022-10-23T03:30:48;99960.16;;;10.14;86.10
74613;BME280;63119;51.788;8.824;2022-10-23T03:33:14;99960.78;;;10.17;86.21
74613;BME280;63119;51.788;8.824;2022-10-23T03:35:39;99952.94;;;10.16;86.19
74613;BME280;63119;51.788;8.824;2022-10-23T03:38:04;99951.44;;;10.12;86.69
74613;BME280;63119;51.788;8.824;2022-10-23T03:40:30;99953.81;;;10.16;86.63
74613;BME280;63119;51.788;8.824;2022-10-23T03:42:55;99960.19;;;10.12;85.69
74613;BME280;63119;51.788;8.824;2022-10-23T03:45:20;99964.66;;;10.12;86.36
74613;BME280;63119;51.788;8.824;2022-10-23T03:47:45;99962.09;;;10.10;86.28
74613;BME280;63119;51.788;8.824;2022-10-23T03:50:11;99966.28;;;10.14;86.10
74613;BME280;63119;51.788;8.824;2022-10-23T03:52:38;99957.38;;;10.15;86.18
74613;BME280;63119;51.788;8.824;2022-10-23T03:55:04;99962.19;;;9.96;87.62
74613;BME280;63119;51.788;8.824;2022-10-23T03:57:29;99960.94;;;10.02;87.15
74613;BME280;63119;51.788;8.824;2022-10-23T03:59:55;99966.22;;;10.02;86.42
74613;BME280;63119;51.788;8.824;2022-10-23T04:02:20;99965.16;;;10.04;86.54
74613;BME280;63119;51.788;8.824;2022-10-23T04:04:45;99967.59;;;10.07;86.31
74613;BME280;63119;51.788;8.824;2022-10-23T04:07:11;99959.22;;;10.01;86.86
74613;BME280;63119;51.788;8.824;2022-10-23T04:09:36;99953.00;;;10.02;86.75
74613;BME280;63119;51.788;8.824;2022-10-23T04:12:01;99944.47;;;10.11;86.58
74613;BME280;63119;51.788;8.824;2022-10-23T04:14:27;99945.19;;;10.13;87.08
74613;BME280;63119;51.788;8.824;2022-10-23T04:16:52;99932.19;;;10.10;87.21
74613;BME280;63119;51.788;8.824;2022-10-23T04:19:17;99930.50;;;10.09;86.46
74613;BME280;63119;51.788;8.824;2022-10-23T04:21:43;99928.88;;;10.06;87.38
74613;BME280;63119;51.788;8.824;2022-10-23T04:24:08;99928.47;;;10.12;87.88
74613;BME280;63119;51.788;8.824;2022-10-23T04:26:34;99927.50;;;10.01;87.65
74613;BME280;63119;51.788;8.824;2022-10-23T04:28:59;99930.56;;;9.95;88.05
74613;BME280;63119;51.788;8.824;2022-10-23T04:31:24;99922.63;;;9.95;88.04
74613;BME280;63119;51.788;8.824;2022-10-23T04:33:50;99930.56;;;9.95;87.93
74613;BME280;63119;51.788;8.824;2022-10-23T04:36:15;99919.97;;;9.95;87.69
74613;BME280;63119;51.788;8.824;2022-10-23T04:38:40;99923.59;;;9.94;87.75
74613;BME280;63119;51.788;8.824;2022-10-23T04:41:06;99915.53;;;9.95;87.26
74613;BME280;63119;51.788;8.824;2022-10-23T04:43:31;99919.44;;;9.89;87.43
74613;BME280;63119;51.788;8.824;2022-10-23T04:45:56;99915.88;;;9.91;87.90
74613;BME280;63119;51.788;8.824;2022-10-23T04:48:21;99917.53;;;9.92;87.12
74613;BME280;63119;51.788;8.824;2022-10-23T04:50:57;99922.50;;;9.83;86.85
74613;BME280;63119;51.788;8.824;2022-10-23T04:53:23;99926.38;;;9.78;87.09
74613;BME280;63119;51.788;8.824;2022-10-23T04:55:53;99925.81;;;9.73;87.96
74613;BME280;63119;51.788;8.824;2022-10-23T04:58:18;99922.56;;;9.69;87.21
74613;BME280;63119;51.788;8.824;2022-10-23T05:00:45;99928.91;;;9.79;87.22
74613;BME280;63119;51.788;8.824;2022-10-23T05:03:11;99933.16;;;9.82;86.64
74613;BME280;63119;51.788;8.824;2022-10-23T05:05:36;99931.34;;;9.82;86.80
74613;BME280;63119;51.788;8.824;2022-10-23T05:08:02;99939.00;;;9.87;87.00
74613;BME280;63119;51.788;8.824;2022-10-23T05:10:28;99940.19;;;9.96;87.77
74613;BME280;63119;51.788;8.824;2022-10-23T05:12:53;99936.91;;;9.92;87.48
74613;BME280;63119;51.788;8.824;2022-10-23T05:15:18;99929.41;;;9.99;87.02
74613;BME280;63119;51.788;8.824;2022-10-23T05:17:45;99917.38;;;10.07;87.51
74613;BME280;63119;51.788;8.824;2022-10-23T05:20:15;99909.06;;;10.13;87.88
74613;BME280;63119;51.788;8.824;2022-10-23T05:22:43;99915.00;;;10.17;87.05
74613;BME280;63119;51.788;8.824;2022-10-23T05:25:11;99904.00;;;10.23;88.04
74613;BME280;63119;51.788;8.824;2022-10-23T05:27:36;99904.66;;;10.26;88.33
74613;BME280;63119;51.788;8.824;2022-10-23T05:30:03;99899.34;;;10.26;87.71
74613;BME280;63119;51.788;8.824;2022-10-23T05:32:30;99886.03;;;10.28;88.21
74613;BME280;63119;51.788;8.824;2022-10-23T05:34:57;99887.72;;;10.29;87.98
74613;BME280;63119;51.788;8.824;2022-10-23T05:37:23;99879.28;;;10.36;89.11
74613;BME280;63119;51.788;8.824;2022-10-23T05:39:48;99878.63;;;10.33;89.38
74613;BME280;63119;51.788;8.824;2022-10-23T05:42:14;99886.44;;;10.34;88.26
74613;BME280;63119;51.788;8.824;2022-10-23T05:44:39;99886.03;;;10.28;88.32
74613;BME280;63119;51.788;8.824;2022-10-23T05:47:06;99884.97;;;10.18;89.15
74613;BME280;63119;51.788;8.824;2022-10-23T05:49:31;99886.84;;;10.16;90.06
74613;BME280;63119;51.788;8.824;2022-10-23T05:51:57;99881.34;;;10.19;89.25
74613;BME280;63119;51.788;8.824;2022-10-23T05:54:22;99885.50;;;10.23;88.51
74613;BME280;63119;51.788;8.824;2022-10-23T05:56:47;99893.50;;;10.21;89.14
74613;BME280;63119;51.788;8.824;2022-10-23T05:59:13;99900.00;;;10.30;90.71
74613;BME280;63119;51.788;8.824;2022-10-23T06:01:38;99888.88;;;10.37;89.78
74613;BME280;63119;51.788;8.824;2022-10-23T06:04:03;99885.59;;;10.72;92.72
74613;BME280;63119;51.788;8.824;2022-10-23T06:06:29;99882.81;;;10.98;92.59
74613;BME280;63119;51.788;8.824;2022-10-23T06:08:55;99882.31;;;11.30;92.61
74613;BME280;63119;51.788;8.824;2022-10-23T06:11:21;99877.44;;;11.24;90.62
74613;BME280;63119;51.788;8.824;2022-10-23T06:13:47;99878.41;;;11.23;90.14
74613;BME280;63119;51.788;8.824;2022-10-23T06:16:21;99878.22;;;11.37;91.58
74613;BME280;63119;51.788;8.824;2022-10-23T06:18:46;99881.72;;;11.37;90.45
74613;BME280;63119;51.788;8.824;2022-10-23T06:21:13;99869.47;;;11.60;91.68
74613;BME280;63119;51.788;8.824;2022-10-23T06:23:39;99870.53;;;11.70;92.27
74613;BME280;63119;51.788;8.824;2022-10-23T06:26:06;99871.41;;;11.82;91.85
74613;BME280;63119;51.788;8.824;2022-10-23T06:28:32;99861.44;;;11.96;91.45
74613;BME280;63119;51.788;8.824;2022-10-23T06:30:58;99861.69;;;12.04;90.24
74613;BME280;63119;51.788;8.824;2022-10-23T06:33:23;99852.19;;;12.13;90.25
74613;BME280;63119;51.788;8.824;2022-10-23T06:35:48;99852.81;;;12.17;89.48
74613;BME280;63119;51.788;8.824;2022-10-23T06:38:14;99852.72;;;12.29;89.71
74613;BME280;63119;51.788;8.824;2022-10-23T06:40:39;99857.69;;;12.45;89.76
74613;BME280;63119;51.788;8.824;2022-10-23T06:43:05;99854.44;;;12.52;88.99
74613;BME280;63119;51.788;8.824;2022-10-23T06:45:32;99848.78;;;12.68;88.17
74613;BME280;63119;51.788;8.824;2022-10-23T06:47:58;99851.78;;;12.86;88.12
74613;BME280;63119;51.788;8.824;2022-10-23T06:50:24;99848.78;;;12.79;87.94
74613;BME280;63119;51.788;8.824;2022-10-23T06:52:49;99856.16;;;12.76;87.58
74613;BME280;63119;51.788;8.824;2022-10-23T06:55:15;99857.69;;;12.89;87.40
74613;BME280;63119;51.788;8.824;2022-10-23T06:57:41;99864.69;;;13.24;86.62
74613;BME280;63119;51.788;8.824;2022-10-23T07:00:07;99862.50;;;13.40;86.01
74613;BME280;63119;51.788;8.824;2022-10-23T07:02:32;99866.06;;;13.61;84.70
74613;BME280;63119;51.788;8.824;2022-10-23T07:04:57;99866.44;;;13.77;84.00
74613;BME280;63119;51.788;8.824;2022-10-23T07:07:23;99867.38;;;13.87;83.53
74613;BME280;63119;51.788;8.824;2022-10-23T07:09:48;99866.50;;;13.98;82.59
74613;BME280;63119;51.788;8.824;2022-10-23T07:12:13;99870.22;;;14.06;82.88
74613;BME280;63119;51.788;8.824;2022-10-23T07:14:38;99871.81;;;13.98;83.24
74613;BME280;63119;51.788;8.824;2022-10-23T07:17:04;99869.63;;;14.03;83.54
74613;BME280;63119;51.788;8.824;2022-10-23T07:19:29;99869.16;;;13.98;83.80
74613;BME280;63119;51.788;8.824;2022-10-23T07:21:54;99854.94;;;14.08;83.64
74613;BME280;63119;51.788;8.824;2022-10-23T07:24:20;99861.63;;;14.03;83.90
74613;BME280;63119;51.788;8.824;2022-10-23T07:26:45;99863.63;;;14.10;83.68
74613;BME280;63119;51.788;8.824;2022-10-23T07:29:11;99857.22;;;14.13;83.40
74613;BME280;63119;51.788;8.824;2022-10-23T07:31:36;99858.13;;;14.23;82.94
74613;BME280;63119;51.788;8.824;2022-10-23T07:34:01;99856.47;;;14.22;83.16
74613;BME280;63119;51.788;8.824;2022-10-23T07:36:27;99864.28;;;14.23;82.93
74613;BME280;63119;51.788;8.824;2022-10-23T07:38:52;99860.53;;;14.26;83.47
74613;BME280;63119;51.788;8.824;2022-10-23T07:41:17;99860.16;;;14.31;83.17
74613;BME280;63119;51.788;8.824;2022-10-23T07:43:43;99854.72;;;14.53;81.69
74613;BME280;63119;51.788;8.824;2022-10-23T07:46:08;99852.09;;;15.02;78.98
74613;BME280;63119;51.788;8.824;2022-10-23T07:48:35;99846.19;;;14.89;80.17
74613;BME280;63119;51.788;8.824;2022-10-23T07:51:03;99848.59;;;15.02;79.19
74613;BME280;63119;51.788;8.824;2022-10-23T07:53:33;99841.91;;;15.17;77.94
74613;BME280;63119;51.788;8.824;2022-10-23T07:56:08;99840.34;;;15.14;78.40
74613;BME280;63119;51.788;8.824;2022-10-23T07:58:34;99849.06;;;15.16;78.94
74613;BME280;63119;51.788;8.824;2022-10-23T08:01:02;99841.78;;;15.18;78.09
74613;BME280;63119;51.788;8.824;2022-10-23T08:03:30;99845.84;;;15.32;77.59
74613;BME280;63119;51.788;8.824;2022-10-23T08:05:56;99842.25;;;15.43;77.18
74613;BME280;63119;51.788;8.824;2022-10-23T08:08:22;99845.25;;;15.59;75.92
74613;BME280;63119;51.788;8.824;2022-10-23T08:10:49;99835.84;;;15.74;75.55
74613;BME280;63119;51.788;8.824;2022-10-23T08:13:15;99838.34;;;15.75;75.14
74613;BME280;63119;51.788;8.824;2022-10-23T08:15:41;99832.31;;;16.02;74.61
74613;BME280;63119;51.788;8.824;2022-10-23T08:18:07;99828.38;;;15.87;74.23
74613;BME280;63119;51.788;8.824;2022-10-23T08:20:40;99836.53;;;15.95;74.06
74613;BME280;63119;51.788;8.824;2022-10-23T08:23:06;99826.97;;;16.02;73.91
74613;BME280;63119;51.788;8.824;2022-10-23T08:25:32;99828.09;;;15.90;73.59
74613;BME280;63119;51.788;8.824;2022-10-23T08:27:57;99815.31;;;15.94;74.13
74613;BME280;63119;51.788;8.824;2022-10-23T08:30:22;99820.53;;;15.76;75.02
74613;BME280;63119;51.788;8.824;2022-10-23T08:32:47;99814.91;;;15.79;74.55
74613;BME280;63119;51.788;8.824;2022-10-23T08:35:13;99808.16;;;15.75;74.10
74613;BME280;63119;51.788;8.824;2022-10-23T08:37:38;99814.91;;;15.69;75.03
74613;BME280;63119;51.788;8.824;2022-10-23T08:40:03;99806.22;;;15.67;74.92
74613;BME280;63119;51.788;8.824;2022-10-23T08:42:29;99807.06;;;15.49;75.32
74613;BME280;63119;51.788;8.824;2022-10-23T08:44:58;99806.50;;;15.55;76.12
74613;BME280;63119;51.788;8.824;2022-10-23T08:47:35;99804.66;;;15.55;75.90
74613;BME280;63119;51.788;8.824;2022-10-23T08:52:54;99815.34;;;15.65;75.46
74613;BME280;63119;51.788;8.824;2022-10-23T08:55:35;99819.69;;;15.75;75.19
74613;BME280;63119;51.788;8.824;2022-10-23T08:58:05;99827.28;;;15.80;75.18
74613;BME280;63119;51.788;8.824;2022-10-23T09:00:31;99824.91;;;15.87;75.02
74613;BME280;63119;51.788;8.824;2022-10-23T09:03:00;99811.28;;;15.90;75.21
74613;BME280;63119;51.788;8.824;2022-10-23T09:05:30;99819.41;;;15.88;74.43
74613;BME280;63119;51.788;8.824;2022-10-23T09:19:16;99800.28;;;16.02;73.72
74613;BME280;63119;51.788;8.824;2022-10-23T09:21:46;99797.47;;;16.13;73.50
74613;BME280;63119;51.788;8.824;2022-10-23T09:24:15;99799.69;;;16.18;73.77
74613;BME280;63119;51.788;8.824;2022-10-23T09:26:45;99796.31;;;16.25;74.08
74613;BME280;63119;51.788;8.824;2022-10-23T09:31:52;99784.44;;;16.47;72.50
74613;BME280;63119;51.788;8.824;2022-10-23T09:34:21;99773.09;;;16.72;72.45
74613;BME280;63119;51.788;8.824;2022-10-23T09:36:54;99764.84;;;16.93;70.83
74613;BME280;63119;51.788;8.824;2022-10-23T09:39:26;99771.13;;;17.19;70.83
74613;BME280;63119;51.788;8.824;2022-10-23T09:41:52;99770.22;;;17.28;70.99
74613;BME280;63119;51.788;8.824;2022-10-23T09:44:21;99767.94;;;17.33;70.54
74613;BME280;63119;51.788;8.824;2022-10-23T09:46:57;99766.41;;;17.48;70.49
74613;BME280;63119;51.788;8.824;2022-10-23T09:49:24;99766.22;;;17.60;69.92
74613;BME280;63119;51.788;8.824;2022-10-23T09:54:17;99767.69;;;17.97;69.59
74613;BME280;63119;51.788;8.824;2022-10-23T09:56:47;99763.44;;;18.13;69.38
74613;BME280;63119;51.788;8.824;2022-10-23T10:01:50;99765.06;;;18.31;67.13
74613;BME280;63119;51.788;8.824;2022-10-23T10:04:16;99772.41;;;18.29;66.64
74613;BME280;63119;51.788;8.824;2022-10-23T10:06:42;99770.56;;;18.04;67.28
74613;BME280;63119;51.788;8.824;2022-10-23T10:09:13;99772.03;;;18.24;67.62
74613;BME280;63119;51.788;8.824;2022-10-23T10:11:51;99771.38;;;18.22;66.58
74613;BME280;63119;51.788;8.824;2022-10-23T10:14:24;99773.91;;;18.24;65.98
74613;BME280;63119;51.788;8.824;2022-10-23T10:16:57;99781.97;;;18.06;67.26
74613;BME280;63119;51.788;8.824;2022-10-23T10:27:59;99772.84;;;17.73;68.19
74613;BME280;63119;51.788;8.824;2022-10-23T10:30:47;99766.59;;;17.65;69.01
74613;BME280;63119;51.788;8.824;2022-10-23T10:33:23;99756.69;;;17.83;68.65
74613;BME280;63119;51.788;8.824;2022-10-23T10:35:59;99751.66;;;18.06;67.78
74613;BME280;63119;51.788;8.824;2022-10-23T10:38:41;99756.38;;;17.86;67.79
74613;BME280;63119;51.788;8.824;2022-10-23T10:41:38;99751.47;;;17.81;68.10
74613;BME280;63119;51.788;8.824;2022-10-23T10:44:13;99746.66;;;17.85;69.11
74613;BME280;63119;51.788;8.824;2022-10-23T10:46:45;99737.78;;;18.02;67.19
74613;BME280;63119;51.788;8.824;2022-10-23T10:57:29;99709.72;;;17.88;66.79
74613;BME280;63119;51.788;8.824;2022-10-23T10:59:58;99698.44;;;17.77;67.60
74613;BME280;63119;51.788;8.824;2022-10-23T11:02:27;99699.22;;;17.95;66.96
74613;BME280;63119;51.788;8.824;2022-10-23T11:05:17;99695.59;;;18.04;66.77
74613;BME280;63119;51.788;8.824;2022-10-23T11:08:10;99695.88;;;17.93;67.18
74613;BME280;63119;51.788;8.824;2022-10-23T11:10:41;99686.72;;;18.03;66.65
74613;BME280;63119;51.788;8.824;2022-10-23T11:15:59;99689.56;;;18.02;66.19
74613;BME280;63119;51.788;8.824;2022-10-23T11:18:28;99685.88;;;18.03;66.37
74613;BME280;63119;51.788;8.824;2022-10-23T11:24:00;99672.03;;;18.08;66.47
74613;BME280;63119;51.788;8.824;2022-10-23T11:26:38;99675.13;;;18.21;65.71
74613;BME280;63119;51.788;8.824;2022-10-23T11:37:01;99648.91;;;18.07;67.10
74613;BME280;63119;51.788;8.824;2022-10-23T11:39:30;99631.16;;;18.06;66.92
74613;BME280;63119;51.788;8.824;2022-10-23T11:44:48;99634.69;;;18.06;67.20
74613;BME280;63119;51.788;8.824;2022-10-23T11:47:31;99626.72;;;18.22;66.25
74613;BME280;63119;51.788;8.824;2022-10-23T11:52:39;99623.94;;;17.98;67.44
74613;BME280;63119;51.788;8.824;2022-10-23T11:55:19;99618.78;;;18.05;67.14
74613;BME280;63119;51.788;8.824;2022-10-23T12:00:33;99614.97;;;17.81;68.78
74613;BME280;63119;51.788;8.824;2022-10-23T12:03:00;99611.28;;;17.74;69.31
74613;BME280;63119;51.788;8.824;2022-10-23T12:05:35;99606.28;;;17.79;68.81
74613;BME280;63119;51.788;8.824;2022-10-23T12:08:07;99592.22;;;17.77;69.11
74613;BME280;63119;51.788;8.824;2022-10-23T12:10:45;99591.66;;;17.66;68.91
74613;BME280;63119;51.788;8.824;2022-10-23T12:16:03;99580.34;;;17.72;68.65
74613;BME280;63119;51.788;8.824;2022-10-23T12:18:29;99581.00;;;17.74;68.62
74613;BME280;63119;51.788;8.824;2022-10-23T12:20:59;99573.94;;;17.65;69.40
74613;BME280;63119;51.788;8.824;2022-10-23T12:23:32;99598.16;;;17.63;68.30
74613;BME280;63119;51.788;8.824;2022-10-23T12:29:20;99578.22;;;17.58;69.18
74613;BME280;63119;51.788;8.824;2022-10-23T12:38:08;99554.69;;;17.69;69.00
74613;BME280;63119;51.788;8.824;2022-10-23T12:40:37;99547.47;;;17.62;68.96
74613;BME280;63119;51.788;8.824;2022-10-23T12:43:02;99544.94;;;17.60;68.87
74613;BME280;63119;51.788;8.824;2022-10-23T12:45:44;99546.97;;;17.58;68.89
74613;BME280;63119;51.788;8.824;2022-10-23T12:48:18;99535.03;;;17.53;69.00
74613;BME280;63119;51.788;8.824;2022-10-23T12:50:50;99530.38;;;17.55;69.53
74613;BME280;63119;51.788;8.824;2022-10-23T12:53:18;99530.91;;;17.58;69.52
74613;BME280;63119;51.788;8.824;2022-10-23T12:55:58;99529.75;;;17.61;68.97
74613;BME280;63119;51.788;8.824;2022-10-23T12:58:26;99519.03;;;17.61;68.71
74613;BME280;63119;51.788;8.824;2022-10-23T13:00:57;99516.09;;;17.72;68.02
74613;BME280;63119;51.788;8.824;2022-10-23T13:03:24;99525.03;;;17.55;68.92
74613;BME280;63119;51.788;8.824;2022-10-23T13:05:52;99512.66;;;17.54;68.90
74613;BME280;63119;51.788;8.824;2022-10-23T13:08:20;99534.84;;;17.54;68.60
74613;BME280;63119;51.788;8.824;2022-10-23T13:10:47;99525.25;;;17.61;68.20
74613;BME280;63119;51.788;8.824;2022-10-23T13:13:20;99526.03;;;17.54;68.70
74613;BME280;63119;51.788;8.824;2022-10-23T13:15:46;99538.56;;;17.53;68.21
74613;BME280;63119;51.788;8.824;2022-10-23T13:18:13;99523.34;;;17.54;68.72
74613;BME280;63119;51.788;8.824;2022-10-23T13:23:25;99537.78;;;17.61;68.26
74613;BME280;63119;51.788;8.824;2022-10-23T13:25:54;99528.41;;;17.57;69.01
74613;BME280;63119;51.788;8.824;2022-10-23T13:28:25;99518.38;;;17.59;68.45
74613;BME280;63119;51.788;8.824;2022-10-23T13:33:43;99502.41;;;17.75;66.49
74613;BME280;63119;51.788;8.824;2022-10-23T13:38:41;99477.28;;;17.76;66.20
74613;BME280;63119;51.788;8.824;2022-10-23T13:41:15;99460.75;;;17.80;64.82
74613;BME280;63119;51.788;8.824;2022-10-23T13:43:41;99447.72;;;17.85;64.97
74613;BME280;63119;51.788;8.824;2022-10-23T13:46:13;99462.78;;;17.86;65.02
74613;BME280;63119;51.788;8.824;2022-10-23T13:48:38;99453.25;;;17.92;64.64
74613;BME280;63119;51.788;8.824;2022-10-23T13:51:15;99459.47;;;17.92;64.89
74613;BME280;63119;51.788;8.824;2022-10-23T13:53:43;99445.44;;;18.07;64.74
74613;BME280;63119;51.788;8.824;2022-10-23T13:56:10;99472.72;;;18.18;64.79
74613;BME280;63119;51.788;8.824;2022-10-23T13:58:35;99469.22;;;18.18;65.59
74613;BME280;63119;51.788;8.824;2022-10-23T14:01:01;99453.16;;;18.18;66.08
74613;BME280;63119;51.788;8.824;2022-10-23T14:03:26;99452.94;;;17.95;66.56
74613;BME280;63119;51.788;8.824;2022-10-23T14:05:51;99456.97;;;18.07;65.75
74613;BME280;63119;51.788;8.824;2022-10-23T14:08:17;99445.75;;;18.03;66.22
74613;BME280;63119;51.788;8.824;2022-10-23T14:10:42;99436.16;;;17.85;67.29
74613;BME280;63119;51.788;8.824;2022-10-23T14:13:07;99442.53;;;17.84;67.67
74613;BME280;63119;51.788;8.824;2022-10-23T14:15:33;99443.59;;;17.99;66.50
74613;BME280;63119;51.788;8.824;2022-10-23T14:17:58;99444.91;;;17.87;67.33
74613;BME280;63119;51.788;8.824;2022-10-23T14:20:23;99427.16;;;17.78;67.89
74613;BME280;63119;51.788;8.824;2022-10-23T14:22:48;99421.63;;;17.87;67.77
74613;BME280;63119;51.788;8.824;2022-10-23T14:25:14;99424.47;;;17.86;67.50
74613;BME280;63119;51.788;8.824;2022-10-23T14:27:39;99428.84;;;17.87;67.19
74613;BME280;63119;51.788;8.824;2022-10-23T14:30:05;99424.81;;;17.91;67.38
74613;BME280;63119;51.788;8.824;2022-10-23T14:32:30;99415.97;;;17.98;66.80
74613;BME280;63119;51.788;8.824;2022-10-23T14:34:55;99404.41;;;17.98;67.44
74613;BME280;63119;51.788;8.824;2022-10-23T14:37:21;99408.59;;;18.00;66.78
74613;BME280;63119;51.788;8.824;2022-10-23T14:39:47;99404.72;;;17.79;68.64